createdAt,value
2019-05-26T00:01:16.984Z,43.90
2019-05-26T00:03:48.044Z,45.73
2019-05-26T00:06:17.675Z,47.13
2019-05-26T00:08:47.005Z,48.27
2019-05-26T00:11:17.867Z,50.37
2019-05-26T00:13:49.932Z,53.00
2019-05-26T00:16:21.980Z,49.73
2019-05-26T00:18:51.272Z,51.90
2019-05-26T00:21:20.769Z,55.57
2019-05-26T00:23:50.286Z,56.20
2019-05-26T00:26:19.767Z,57.03
2019-05-26T00:28:49.911Z,57.67
2019-05-26T00:31:21.399Z,60.00
2019-05-26T00:33:53.974Z,60.77
2019-05-26T00:36:23.141Z,58.77
2019-05-26T00:38:52.318Z,57.83
2019-05-26T00:41:23.362Z,59.53
2019-05-26T00:43:57.300Z,55.67
2019-05-26T00:46:29.107Z,55.60
2019-05-26T00:49:00.270Z,60.27
2019-05-26T00:51:30.997Z,57.60
2019-05-26T00:54:01.301Z,54.83
2019-05-26T00:56:39.849Z,51.17
2019-05-26T00:59:09.395Z,53.83
2019-05-26T01:01:38.572Z,51.80
2019-05-26T01:04:27.339Z,49.47
2019-05-26T01:06:57.280Z,47.50
2019-05-26T01:09:26.445Z,50.10
2019-05-26T01:11:58.321Z,50.53
2019-05-26T01:14:27.439Z,46.17
2019-05-26T01:16:56.653Z,46.27
2019-05-26T01:19:31.451Z,43.77
2019-05-26T01:22:00.596Z,43.50
2019-05-26T01:24:31.359Z,47.50
2019-05-26T01:27:01.740Z,45.20
2019-05-26T01:29:32.399Z,43.63
2019-05-26T01:32:02.734Z,42.23
2019-05-26T01:34:32.226Z,40.93
2019-05-26T01:37:03.138Z,42.07
2019-05-26T01:39:32.782Z,41.50
2019-05-26T01:42:02.975Z,41.97
2019-05-26T01:44:34.063Z,41.63
2019-05-26T01:47:04.656Z,40.80
2019-05-26T01:49:34.165Z,38.93
2019-05-26T01:52:03.368Z,39.90
2019-05-26T01:54:32.847Z,43.00
2019-05-26T01:57:02.071Z,40.70
2019-05-26T01:59:31.232Z,39.40
2019-05-26T02:02:02.480Z,40.87
2019-05-26T02:04:32.050Z,40.50
2019-05-26T02:07:04.127Z,40.30
2019-05-26T02:09:37.056Z,38.00
2019-05-26T02:12:07.687Z,38.90
2019-05-26T02:14:36.849Z,41.60
2019-05-26T02:17:06.091Z,41.83
2019-05-26T02:19:35.295Z,40.13
2019-05-26T02:22:04.555Z,40.00
2019-05-26T02:24:33.711Z,39.43
2019-05-26T02:27:03.599Z,41.73
2019-05-26T02:29:33.340Z,39.87
2019-05-26T02:32:02.602Z,38.40
2019-05-26T02:34:32.075Z,37.47
2019-05-26T02:37:04.100Z,38.13
2019-05-26T02:39:34.628Z,40.17
2019-05-26T02:42:04.770Z,39.53
2019-05-26T02:44:35.169Z,39.90
2019-05-26T02:47:05.814Z,38.20
2019-05-26T02:49:37.371Z,39.17
2019-05-26T02:52:06.272Z,38.57
2019-05-26T02:54:38.090Z,38.20
2019-05-26T02:57:09.556Z,40.03
2019-05-26T02:59:40.900Z,40.20
2019-05-26T03:02:11.900Z,38.53
2019-05-26T03:04:42.316Z,40.33
2019-05-26T03:07:14.898Z,38.97
2019-05-26T03:09:46.418Z,40.07
2019-05-26T03:12:17.191Z,40.53
2019-05-26T03:14:49.901Z,37.43
2019-05-26T03:17:23.158Z,37.57
2019-05-26T03:19:54.038Z,36.43
2019-05-26T03:22:27.589Z,36.17
2019-05-26T03:25:00.791Z,48.13
2019-05-26T03:27:30.008Z,47.97
2019-05-26T03:29:59.444Z,48.83
2019-05-26T03:32:28.842Z,49.50
2019-05-26T03:34:59.033Z,47.60
2019-05-26T03:37:28.751Z,47.00
2019-05-26T03:39:58.378Z,48.43
2019-05-26T03:42:27.601Z,49.63
2019-05-26T03:44:58.857Z,47.40
2019-05-26T03:47:39.676Z,43.50
2019-05-26T03:50:10.080Z,44.47
2019-05-26T03:52:39.211Z,44.23
2019-05-26T03:55:08.500Z,43.03
2019-05-26T03:57:37.788Z,38.30
2019-05-26T04:00:08.329Z,37.17
2019-05-26T04:02:37.699Z,35.47
2019-05-26T04:05:09.069Z,34.13
2019-05-26T04:07:38.265Z,34.53
2019-05-26T04:10:08.097Z,33.97
2019-05-26T04:12:37.404Z,33.00
2019-05-26T04:15:06.923Z,32.03
2019-05-26T04:17:55.539Z,30.47
2019-05-26T04:20:24.974Z,30.23
2019-05-26T04:22:54.725Z,28.23
2019-05-26T04:25:23.976Z,30.53
2019-05-26T04:27:54.387Z,28.33
2019-05-26T04:30:23.625Z,27.07
2019-05-26T04:32:53.204Z,28.87
2019-05-26T04:35:23.089Z,27.87
2019-05-26T04:37:56.019Z,28.03
2019-05-26T04:40:27.628Z,27.90
2019-05-26T04:42:56.334Z,26.70
2019-05-26T04:45:28.948Z,27.27
2019-05-26T04:48:00.747Z,25.43
2019-05-26T04:50:30.350Z,26.77
2019-05-26T04:53:06.536Z,26.47
2019-05-26T04:55:30.773Z,26.13
2019-05-26T04:58:00.025Z,26.67
2019-05-26T05:00:29.935Z,25.93
2019-05-26T05:03:05.851Z,25.40
2019-05-26T05:05:35.729Z,25.70
2019-05-26T05:08:12.813Z,26.03
2019-05-26T05:10:43.002Z,24.60
2019-05-26T05:13:20.458Z,25.67
2019-05-26T05:15:49.831Z,24.47
2019-05-26T05:18:19.069Z,24.87
2019-05-26T05:20:48.584Z,24.97
2019-05-26T05:23:18.101Z,23.00
2019-05-26T05:25:47.236Z,23.20
2019-05-26T05:28:19.236Z,24.10
2019-05-26T05:31:37.856Z,23.67
2019-05-26T05:34:07.089Z,23.00
2019-05-26T05:36:36.368Z,24.03
2019-05-26T05:39:08.252Z,22.20
2019-05-26T05:41:37.493Z,23.70
2019-05-26T05:44:06.711Z,23.60
2019-05-26T05:46:35.907Z,23.73
2019-05-26T05:49:05.249Z,21.90
2019-05-26T05:51:38.184Z,22.53
2019-05-26T05:54:11.336Z,22.03
2019-05-26T05:56:40.811Z,21.83
2019-05-26T05:59:09.985Z,21.90
2019-05-26T06:01:39.259Z,21.70
2019-05-26T06:04:08.647Z,21.70
2019-05-26T06:06:38.234Z,21.90
2019-05-26T06:09:07.792Z,21.53
2019-05-26T06:11:37.118Z,21.13
2019-05-26T06:14:06.272Z,22.07
2019-05-26T06:16:36.751Z,21.03
2019-05-26T06:19:06.255Z,20.63
2019-05-26T06:21:35.717Z,20.20
2019-05-26T06:24:08.698Z,20.70
2019-05-26T06:26:37.896Z,20.10
2019-05-26T06:29:07.044Z,21.40
2019-05-26T06:31:38.704Z,21.57
2019-05-26T06:34:08.000Z,21.43
2019-05-26T06:36:37.391Z,21.40
2019-05-26T06:39:10.354Z,19.30
2019-05-26T06:41:42.780Z,19.57
2019-05-26T06:44:12.267Z,20.97
2019-05-26T06:46:41.769Z,19.83
2019-05-26T06:49:10.919Z,19.93
2019-05-26T06:51:43.206Z,17.77
2019-05-26T06:54:13.922Z,19.57
2019-05-26T06:56:45.753Z,18.77
2019-05-26T06:59:17.112Z,18.10
2019-05-26T07:01:47.420Z,19.43
2019-05-26T07:04:16.995Z,19.20
2019-05-26T07:06:46.263Z,18.23
2019-05-26T07:09:15.413Z,18.83
2019-05-26T07:11:55.745Z,18.30
2019-05-26T07:14:16.659Z,18.73
2019-05-26T07:16:46.221Z,17.73
2019-05-26T07:19:16.779Z,18.30
2019-05-26T07:21:46.278Z,17.47
2019-05-26T07:24:15.739Z,18.63
2019-05-26T07:26:46.159Z,16.60
2019-05-26T07:29:19.529Z,17.03
2019-05-26T07:31:59.627Z,17.70
2019-05-26T07:34:30.116Z,17.73
2019-05-26T07:37:01.745Z,17.30
2019-05-26T07:39:34.784Z,16.57
2019-05-26T07:42:10.687Z,16.90
2019-05-26T07:44:36.458Z,15.90
2019-05-26T07:47:08.650Z,17.90
2019-05-26T07:49:37.816Z,15.83
2019-05-26T07:52:08.144Z,15.87
2019-05-26T07:54:39.952Z,15.43
2019-05-26T07:57:09.202Z,15.03
2019-05-26T07:59:39.521Z,16.20
2019-05-26T08:02:16.576Z,15.20
2019-05-26T08:04:47.131Z,15.93
2019-05-26T08:07:23.109Z,15.10
2019-05-26T08:10:02.473Z,14.73
2019-05-26T08:12:33.222Z,13.83
2019-05-26T08:15:02.708Z,15.07
2019-05-26T08:17:32.121Z,14.87
2019-05-26T08:20:02.396Z,14.63
2019-05-26T08:22:33.221Z,14.67
2019-05-26T08:25:06.275Z,12.60
2019-05-26T08:27:36.209Z,12.57
2019-05-26T08:30:14.709Z,12.13
2019-05-26T08:32:43.683Z,12.33
2019-05-26T08:35:19.630Z,10.60
2019-05-26T08:37:52.877Z,11.67
2019-05-26T08:40:22.423Z,11.70
2019-05-26T08:42:53.921Z,11.40
2019-05-26T08:45:23.707Z,10.27
2019-05-26T08:47:53.104Z,10.60
2019-05-26T08:50:24.780Z,9.63
2019-05-26T08:52:54.673Z,9.70
2019-05-26T08:55:24.134Z,9.50
2019-05-26T08:57:55.243Z,9.30
2019-05-26T09:00:25.879Z,7.90
2019-05-26T09:02:57.974Z,9.90
2019-05-26T09:05:27.646Z,9.60
2019-05-26T09:07:56.871Z,8.30
2019-05-26T09:10:26.040Z,7.83
2019-05-26T09:13:01.147Z,7.83
2019-05-26T09:15:27.747Z,7.33
2019-05-26T09:17:59.130Z,7.40
2019-05-26T09:20:28.430Z,6.63
2019-05-26T09:22:58.409Z,7.60
2019-05-26T09:25:33.410Z,6.67
2019-05-26T09:28:05.099Z,6.90
2019-05-26T09:30:35.047Z,6.13
2019-05-26T09:33:18.121Z,6.53
2019-05-26T09:35:47.349Z,5.30
2019-05-26T09:38:16.624Z,5.70
2019-05-26T09:40:45.898Z,5.77
2019-05-26T09:43:16.744Z,6.03
2019-05-26T09:45:46.397Z,6.03
2019-05-26T09:48:16.195Z,4.73
2019-05-26T09:50:45.441Z,6.30
2019-05-26T09:53:14.667Z,6.47
2019-05-26T09:55:43.869Z,6.27
2019-05-26T09:58:17.231Z,5.20
2019-05-26T10:00:50.678Z,5.93
2019-05-26T10:03:20.724Z,6.07
2019-05-26T10:05:52.305Z,5.93
2019-05-26T10:08:21.334Z,5.77
2019-05-26T10:10:52.822Z,5.50
2019-05-26T10:13:31.284Z,5.43
2019-05-26T10:15:56.871Z,5.27
2019-05-26T10:18:27.549Z,5.80
2019-05-26T10:20:56.788Z,5.80
2019-05-26T10:23:26.065Z,5.77
2019-05-26T10:25:58.340Z,5.00
2019-05-26T10:28:37.026Z,4.70
2019-05-26T10:31:15.391Z,3.60
2019-05-26T10:33:44.794Z,3.60
2019-05-26T10:36:16.499Z,3.93
2019-05-26T10:38:46.174Z,4.30
2019-05-26T10:41:16.704Z,4.03
2019-05-26T10:43:47.680Z,4.23
2019-05-26T10:46:20.342Z,3.83
2019-05-26T10:48:49.596Z,4.57
2019-05-26T10:51:22.329Z,4.27
2019-05-26T10:53:54.103Z,3.93
2019-05-26T10:56:28.461Z,4.03
2019-05-26T10:58:57.964Z,3.53
2019-05-26T11:01:27.213Z,3.53
2019-05-26T11:03:57.041Z,4.10
2019-05-26T11:06:26.990Z,3.70
2019-05-26T11:08:56.159Z,3.70
2019-05-26T11:11:25.361Z,3.57
2019-05-26T11:14:06.096Z,3.50
2019-05-26T11:16:35.679Z,3.50
2019-05-26T11:19:07.778Z,3.10
2019-05-26T11:21:39.600Z,2.90
2019-05-26T11:24:10.267Z,2.83
2019-05-26T11:26:40.037Z,3.00
2019-05-26T11:29:12.026Z,3.00
2019-05-26T11:31:41.500Z,3.80
2019-05-26T11:34:13.839Z,2.80
2019-05-26T11:36:46.182Z,2.60
2019-05-26T11:39:15.414Z,2.80
2019-05-26T11:41:54.970Z,2.57
2019-05-26T11:44:24.876Z,3.10
2019-05-26T11:47:00.942Z,2.63
2019-05-26T11:49:31.965Z,2.63
2019-05-26T11:52:03.522Z,3.17
2019-05-26T11:54:34.640Z,2.67
2019-05-26T11:57:05.612Z,2.77
2019-05-26T11:59:34.760Z,2.87
2019-05-26T12:02:04.370Z,2.53
2019-05-26T12:04:48.495Z,2.27
2019-05-26T12:07:21.844Z,2.50
2019-05-26T12:09:51.373Z,2.30
2019-05-26T12:12:22.591Z,2.27
2019-05-26T12:14:51.979Z,1.97
2019-05-26T12:17:22.626Z,2.40
2019-05-26T12:19:52.688Z,2.37
2019-05-26T12:22:25.689Z,2.40
2019-05-26T12:24:56.240Z,1.93
2019-05-26T12:27:25.517Z,1.80
2019-05-26T12:29:55.093Z,1.30
2019-05-26T12:32:24.363Z,1.37
2019-05-26T12:34:53.542Z,1.30
2019-05-26T12:37:22.979Z,1.33
2019-05-26T12:39:52.112Z,0.90
2019-05-26T12:42:21.323Z,0.80
2019-05-26T12:44:50.595Z,0.80
2019-05-26T12:47:19.844Z,0.57
2019-05-26T12:49:49.930Z,0.90
2019-05-26T12:52:19.259Z,1.03
2019-05-26T12:54:48.443Z,1.10
2019-05-26T12:57:19.008Z,0.93
2019-05-26T12:59:48.514Z,1.33
2019-05-26T13:02:17.996Z,1.20
2019-05-26T13:04:47.712Z,1.17
2019-05-26T13:07:17.055Z,1.00
2019-05-26T13:09:46.248Z,0.70
2019-05-26T13:12:17.349Z,0.90
2019-05-26T13:14:46.607Z,0.70
2019-05-26T13:17:15.823Z,1.00
2019-05-26T13:19:47.454Z,0.60
2019-05-26T13:22:19.004Z,0.70
2019-05-26T13:24:48.231Z,0.73
2019-05-26T13:27:17.526Z,0.80
2019-05-26T13:29:47.423Z,0.80
2019-05-26T13:32:16.919Z,0.80
2019-05-26T13:34:47.203Z,0.80
2019-05-26T13:37:16.558Z,0.60
2019-05-26T13:39:45.761Z,0.50
2019-05-26T13:42:18.054Z,0.60
2019-05-26T13:44:59.016Z,0.40
2019-05-26T13:47:30.337Z,0.60
2019-05-26T13:49:59.918Z,0.40
2019-05-26T13:52:31.446Z,0.80
2019-05-26T13:55:03.172Z,0.60
2019-05-26T13:57:34.100Z,0.53
2019-05-26T14:00:06.851Z,0.70
2019-05-26T14:02:36.817Z,0.90
2019-05-26T14:05:06.706Z,1.20
2019-05-26T14:07:36.938Z,1.40
2019-05-26T14:10:10.210Z,1.10
2019-05-26T14:12:39.423Z,1.57
2019-05-26T14:15:11.962Z,1.60
2019-05-26T14:17:46.379Z,1.50
2019-05-26T14:20:19.001Z,1.87
2019-05-26T14:22:48.299Z,1.60
2019-05-26T14:25:19.938Z,1.70
2019-05-26T14:27:49.528Z,1.90
2019-05-26T14:30:19.982Z,1.80
2019-05-26T14:32:51.438Z,1.80
2019-05-26T14:35:22.088Z,1.90
2019-05-26T14:37:53.944Z,1.43
2019-05-26T14:40:23.186Z,1.87
2019-05-26T14:42:55.537Z,1.50
2019-05-26T14:45:25.368Z,1.87
2019-05-26T14:47:54.796Z,1.97
2019-05-26T14:50:24.805Z,1.60
2019-05-26T14:52:56.333Z,1.70
2019-05-26T14:55:26.460Z,1.30
2019-05-26T14:57:55.732Z,1.73
2019-05-26T15:00:27.736Z,1.43
2019-05-26T15:02:57.161Z,1.53
2019-05-26T15:05:26.453Z,1.47
2019-05-26T15:07:58.190Z,1.40
2019-05-26T15:10:27.840Z,1.70
2019-05-26T15:12:59.248Z,1.80
2019-05-26T15:15:29.610Z,1.50
2019-05-26T15:18:02.579Z,1.60
2019-05-26T15:20:33.851Z,1.47
2019-05-26T15:23:03.120Z,1.50
2019-05-26T15:25:32.550Z,1.50
2019-05-26T15:28:02.576Z,1.50
2019-05-26T15:30:34.220Z,1.80
2019-05-26T15:33:05.265Z,1.77
2019-05-26T15:35:39.337Z,2.27
2019-05-26T15:38:08.549Z,2.00
2019-05-26T15:40:38.007Z,1.80
2019-05-26T15:43:08.811Z,1.70
2019-05-26T15:45:38.255Z,1.90
2019-05-26T15:48:07.464Z,2.07
2019-05-26T15:50:36.770Z,2.00
2019-05-26T15:53:06.065Z,2.10
2019-05-26T15:55:35.304Z,2.00
2019-05-26T15:58:04.481Z,2.03
2019-05-26T16:00:33.725Z,2.33
2019-05-26T16:03:02.910Z,2.13
2019-05-26T16:05:32.165Z,2.37
2019-05-26T16:08:04.373Z,1.90
2019-05-26T16:10:33.838Z,2.20
2019-05-26T16:13:07.810Z,2.10
2019-05-26T16:15:37.326Z,1.80
2019-05-26T16:18:08.736Z,2.20
2019-05-26T16:20:38.975Z,2.10
2019-05-26T16:23:09.069Z,2.37
2019-05-26T16:25:42.590Z,2.10
2019-05-26T16:28:12.951Z,1.97
2019-05-26T16:30:45.288Z,2.10
2019-05-26T16:33:14.595Z,2.07
2019-05-26T16:35:44.025Z,2.10
2019-05-26T16:38:13.335Z,1.90
2019-05-26T16:40:44.184Z,1.70
2019-05-26T16:43:16.513Z,2.00
2019-05-26T16:45:55.722Z,1.90
2019-05-26T16:48:19.781Z,2.10
2019-05-26T16:50:49.021Z,1.97
2019-05-26T16:53:18.625Z,1.87
2019-05-26T16:55:47.964Z,1.97
2019-05-26T16:58:18.153Z,1.70
2019-05-26T17:00:48.617Z,2.50
2019-05-26T17:03:19.436Z,2.37
2019-05-26T17:06:05.236Z,2.20
2019-05-26T17:08:22.347Z,2.60
2019-05-26T17:10:55.785Z,2.20
2019-05-26T17:13:27.968Z,2.33
2019-05-26T17:15:57.247Z,1.93
2019-05-26T17:18:26.548Z,2.23
2019-05-26T17:20:56.264Z,2.57
2019-05-26T17:23:25.470Z,2.73
2019-05-26T17:26:06.880Z,2.57
2019-05-26T17:28:37.630Z,2.83
2019-05-26T17:31:07.474Z,2.47
2019-05-26T17:33:39.071Z,2.70
2019-05-26T17:36:11.000Z,3.27
2019-05-26T17:38:41.119Z,3.00
2019-05-26T17:41:12.127Z,2.77
2019-05-26T17:43:41.744Z,2.83
2019-05-26T17:46:17.689Z,3.20
2019-05-26T17:48:48.024Z,2.83
2019-05-26T17:51:22.496Z,2.87
2019-05-26T17:53:52.424Z,2.77
2019-05-26T17:56:21.740Z,2.63
2019-05-26T17:58:51.041Z,3.30
2019-05-26T18:01:20.292Z,2.60
2019-05-26T18:03:49.431Z,3.03
2019-05-26T18:06:18.685Z,2.80
2019-05-26T18:08:48.022Z,3.17
2019-05-26T18:11:17.199Z,3.40
2019-05-26T18:13:46.825Z,3.07
2019-05-26T18:16:19.140Z,3.20
2019-05-26T18:18:51.062Z,3.20
2019-05-26T18:21:20.298Z,3.60
2019-05-26T18:23:51.097Z,3.53
2019-05-26T18:26:21.477Z,3.33
2019-05-26T18:28:51.397Z,3.63
2019-05-26T18:31:20.857Z,3.00
2019-05-26T18:33:53.238Z,3.70
2019-05-26T18:36:23.002Z,4.03
2019-05-26T18:38:52.672Z,4.83
2019-05-26T18:41:22.768Z,4.20
2019-05-26T18:44:01.378Z,4.53
2019-05-26T18:46:30.993Z,4.57
2019-05-26T18:49:01.844Z,4.60
2019-05-26T18:51:31.237Z,4.17
2019-05-26T18:54:00.569Z,4.77
2019-05-26T18:56:31.329Z,5.73
2019-05-26T18:59:03.066Z,5.47
2019-05-26T19:01:38.202Z,5.43
2019-05-26T19:04:07.503Z,5.97
2019-05-26T19:06:36.747Z,6.30
2019-05-26T19:09:10.438Z,6.33
2019-05-26T19:11:42.226Z,6.60
2019-05-26T19:14:13.889Z,7.20
2019-05-26T19:16:43.159Z,6.80
2019-05-26T19:19:12.384Z,6.17
2019-05-26T19:21:41.641Z,6.03
2019-05-26T19:24:10.972Z,6.03
2019-05-26T19:26:40.266Z,5.87
2019-05-26T19:29:09.599Z,6.70
2019-05-26T19:31:38.860Z,6.80
2019-05-26T19:34:08.074Z,6.10
2019-05-26T19:36:37.246Z,6.80
2019-05-26T19:39:09.210Z,6.17
2019-05-26T19:41:39.489Z,6.87
2019-05-26T19:44:08.854Z,7.43
2019-05-26T19:46:39.224Z,7.00
2019-05-26T19:49:08.467Z,6.23
2019-05-26T19:51:38.891Z,6.73
2019-05-26T19:54:09.479Z,6.77
2019-05-26T19:56:40.525Z,7.20
2019-05-26T19:59:12.365Z,7.20
2019-05-26T20:01:41.969Z,6.80
2019-05-26T20:04:11.603Z,7.27
2019-05-26T20:06:43.948Z,7.20
2019-05-26T20:09:12.995Z,7.07
2019-05-26T20:11:44.785Z,7.57
2019-05-26T20:14:19.758Z,6.93
2019-05-26T20:16:50.044Z,8.07
2019-05-26T20:19:19.325Z,6.80
2019-05-26T20:21:50.894Z,6.87
2019-05-26T20:24:20.025Z,8.00
2019-05-26T20:26:49.625Z,6.80
2019-05-26T20:29:19.088Z,6.57
2019-05-26T20:31:48.223Z,5.60
2019-05-26T20:34:17.376Z,6.70
2019-05-26T20:36:46.611Z,7.10
2019-05-26T20:39:15.848Z,7.30
2019-05-26T20:41:45.160Z,6.60
2019-05-26T20:44:14.358Z,6.60
2019-05-26T20:46:43.573Z,4.83
2019-05-26T20:49:16.274Z,6.17
2019-05-26T20:51:46.660Z,5.73
2019-05-26T20:54:15.828Z,5.40
2019-05-26T20:56:45.940Z,5.37
2019-05-26T20:59:15.596Z,5.30
2019-05-26T21:01:44.749Z,4.83
2019-05-26T21:04:14.063Z,4.60
2019-05-26T21:06:43.258Z,5.53
2019-05-26T21:09:13.933Z,5.50
2019-05-26T21:11:48.243Z,5.40
2019-05-26T21:14:17.906Z,6.00
2019-05-26T21:16:47.165Z,6.93
2019-05-26T21:19:19.079Z,6.50
2019-05-26T21:21:48.203Z,6.47
2019-05-26T21:24:18.185Z,6.90
2019-05-26T21:26:48.215Z,7.53
2019-05-26T21:29:17.371Z,9.70
2019-05-26T21:31:46.558Z,7.33
2019-05-26T21:34:16.022Z,8.90
2019-05-26T21:36:45.157Z,9.03
2019-05-26T21:39:14.349Z,10.20
2019-05-26T21:41:43.667Z,11.40
2019-05-26T21:44:12.949Z,11.13
2019-05-26T21:46:42.149Z,13.40
2019-05-26T21:49:13.459Z,12.50
2019-05-26T21:51:45.621Z,9.57
2019-05-26T21:54:15.197Z,8.37
2019-05-26T21:56:44.424Z,9.03
2019-05-26T21:59:17.192Z,9.10
2019-05-26T22:01:46.549Z,8.30
2019-05-26T22:04:15.828Z,9.87
2019-05-26T22:06:45.803Z,10.20
2019-05-26T22:09:15.916Z,12.23
2019-05-26T22:11:45.140Z,11.20
2019-05-26T22:14:14.302Z,11.07
2019-05-26T22:16:45.338Z,10.87
2019-05-26T22:19:15.156Z,12.83
2019-05-26T22:21:44.407Z,12.57
2019-05-26T22:24:13.650Z,12.70
2019-05-26T22:26:43.049Z,13.10
2019-05-26T22:29:12.575Z,12.00
2019-05-26T22:31:43.000Z,12.10
2019-05-26T22:34:15.590Z,12.47
2019-05-26T22:36:44.748Z,12.97
2019-05-26T22:39:17.522Z,9.57
2019-05-26T22:41:46.723Z,11.93
2019-05-26T22:44:15.951Z,12.30
2019-05-26T22:46:45.304Z,11.07
2019-05-26T22:49:14.518Z,11.90
2019-05-26T22:51:43.779Z,9.97
2019-05-26T22:54:13.130Z,11.83
2019-05-26T22:56:42.492Z,12.47
2019-05-26T22:59:11.878Z,10.93
2019-05-26T23:01:41.140Z,11.53
2019-05-26T23:04:10.797Z,10.70
2019-05-26T23:06:40.055Z,11.20
2019-05-26T23:09:10.367Z,10.20
2019-05-26T23:11:39.599Z,9.53
2019-05-26T23:14:12.480Z,9.90
2019-05-26T23:16:42.008Z,10.47
2019-05-26T23:19:23.636Z,9.97
2019-05-26T23:22:02.650Z,10.00
2019-05-26T23:24:32.979Z,10.10
2019-05-26T23:27:05.059Z,9.57
2019-05-26T23:29:37.170Z,10.60
2019-05-26T23:32:08.091Z,12.10
2019-05-26T23:34:37.679Z,10.90
2019-05-26T23:37:07.296Z,11.53
2019-05-26T23:39:42.347Z,11.93
2019-05-26T23:42:15.985Z,12.00
2019-05-26T23:44:45.144Z,11.40
2019-05-26T23:47:22.801Z,10.80
2019-05-26T23:49:52.709Z,10.70
2019-05-26T23:52:21.904Z,10.60
2019-05-26T23:54:53.709Z,9.47
2019-05-26T23:57:22.972Z,8.17
2019-05-26T23:59:52.099Z,8.47
